KSSF/SSF METAR and TAF weather

Enter ICAO airport designator
Station Type Date Time Source
KSSF METAR 2020/04/03 23:19 UTC NOAA

KSSF 032319Z 36011KT 10SM -RA BKN028 BKN050 OVC110 18/17 A2987 RMK AO2 LTG DSNT E RAE2255B19 P0000 T01780167


Station Type Date Time Source
KSSF Decoded METAR 2020/04/03 23:19 UTC NOAA

SAN ANTONIO STINSON MUNI, TX, United States (KSSF) 29-20N 098-28W 176M
Apr 03, 2020 - 07:19 PM EDT / 2020.04.03 2319 UTC
Wind: from the N (360 degrees) at 13 MPH (11 KT):0
Visibility: 10 mile(s):0
Sky conditions: overcast
Weather: light rain; Lightning observed
Precipitation last hour: A trace
Temperature: 64.0 F (17.8 C)
Dew Point: 62.1 F (16.7 C)
Relative Humidity: 93%
Pressure (altimeter): 29.87 in. Hg (1011 hPa)
ob: KSSF 032319Z 36011KT 10SM -RA BKN028 BKN050 OVC110 18/17 A2987 RMK AO2 LTG DSNT E RAE2255B19 P0000 T01780167
cycle: 23

Station Type Date Time Source
KSSF TAF 2020/04/03 22:34 UTC NOAA

TAF
AMD KSSF 032132Z 0322/0418 10005KT P6SM -RA VCTS FEW012 BKN028CB OVC060
FM040100 02013KT P6SM -RA VCTS BKN006 OVC022CB
FM041200 02011KT 2SM SHRA BR OVC006

Example: see airport list